createdAt,value
2018-09-12T00:01:30.477Z,80.43
2018-09-12T00:03:57.644Z,79.16
2018-09-12T00:06:24.979Z,78.82
2018-09-12T00:08:52.129Z,78.55
2018-09-12T00:11:19.344Z,78.82
2018-09-12T00:13:46.559Z,78.91
2018-09-12T00:16:13.700Z,79.59
2018-09-12T00:18:40.821Z,81.33
2018-09-12T00:21:08.170Z,84.40
2018-09-12T00:23:35.311Z,84.94
2018-09-12T00:26:02.477Z,84.09
2018-09-12T00:28:29.738Z,82.33
2018-09-12T00:30:56.994Z,82.45
2018-09-12T00:33:24.309Z,81.30
2018-09-12T00:35:51.473Z,81.29
2018-09-12T00:38:18.620Z,84.20
2018-09-12T00:40:45.801Z,82.98
2018-09-12T00:43:12.913Z,84.01
2018-09-12T00:45:40.004Z,84.32
2018-09-12T00:48:07.338Z,82.51
2018-09-12T00:50:34.484Z,81.70
2018-09-12T00:53:01.668Z,81.54
2018-09-12T00:55:28.898Z,81.46
2018-09-12T00:57:56.132Z,80.86
2018-09-12T01:00:23.421Z,80.70
2018-09-12T01:02:52.067Z,80.48
2018-09-12T01:05:19.273Z,81.43
2018-09-12T01:07:46.372Z,82.29
2018-09-12T01:10:13.623Z,81.27
2018-09-12T01:12:40.739Z,81.32
2018-09-12T01:15:07.922Z,81.24
2018-09-12T01:17:35.169Z,81.24
2018-09-12T01:20:02.488Z,82.03
2018-09-12T01:22:29.688Z,81.27
2018-09-12T01:24:56.832Z,81.33
2018-09-12T01:27:24.000Z,81.62
2018-09-12T01:29:51.517Z,81.74
2018-09-12T01:32:18.833Z,82.55
2018-09-12T01:34:46.013Z,82.20
2018-09-12T01:37:13.932Z,81.89
2018-09-12T01:39:41.081Z,81.80
2018-09-12T01:42:08.252Z,82.25
2018-09-12T01:44:35.348Z,81.95
2018-09-12T01:47:02.495Z,82.10
2018-09-12T01:49:29.620Z,82.42
2018-09-12T01:51:56.717Z,83.36
2018-09-12T01:54:23.801Z,84.60
2018-09-12T01:56:51.124Z,84.09
2018-09-12T01:59:20.833Z,83.74
2018-09-12T02:01:47.917Z,83.34
2018-09-12T02:04:15.142Z,82.64
2018-09-12T02:06:42.352Z,83.25
2018-09-12T02:09:13.608Z,83.13
2018-09-12T02:11:40.772Z,83.06
2018-09-12T02:14:07.930Z,83.73
2018-09-12T02:16:35.132Z,85.12
2018-09-12T02:19:02.589Z,85.60
2018-09-12T02:21:29.716Z,84.78
2018-09-12T02:23:56.897Z,83.57
2018-09-12T02:26:24.082Z,83.10
2018-09-12T02:28:51.253Z,83.15
2018-09-12T02:31:18.620Z,82.83
2018-09-12T02:33:45.841Z,86.54
2018-09-12T02:36:18.719Z,85.96
2018-09-12T02:38:45.811Z,84.92
2018-09-12T02:41:12.925Z,84.89
2018-09-12T02:43:40.169Z,83.15
2018-09-12T02:46:07.321Z,86.32
2018-09-12T02:48:34.596Z,86.46
2018-09-12T02:51:01.767Z,84.22
2018-09-12T02:53:28.875Z,83.28
2018-09-12T02:55:56.113Z,83.19
2018-09-12T02:58:23.252Z,83.14
2018-09-12T03:00:50.451Z,82.77
2018-09-12T03:03:18.452Z,83.16
2018-09-12T03:05:45.652Z,84.53
2018-09-12T03:08:12.856Z,84.00
2018-09-12T03:10:40.092Z,83.26
2018-09-12T03:13:07.261Z,83.15
2018-09-12T03:15:34.495Z,83.25
2018-09-12T03:18:01.708Z,84.23
2018-09-12T03:20:28.878Z,83.55
2018-09-12T03:22:56.028Z,83.37
2018-09-12T03:25:23.161Z,84.48
2018-09-12T03:27:50.271Z,84.00
2018-09-12T03:30:17.653Z,83.98
2018-09-12T03:32:44.931Z,84.79
2018-09-12T03:35:12.085Z,84.32
2018-09-12T03:37:40.239Z,83.68
2018-09-12T03:40:07.341Z,83.35
2018-09-12T03:42:34.471Z,84.75
2018-09-12T03:45:01.679Z,85.46
2018-09-12T03:47:28.821Z,85.38
2018-09-12T03:49:55.954Z,85.82
2018-09-12T03:52:23.159Z,85.71
2018-09-12T03:54:50.330Z,85.37
2018-09-12T03:57:17.564Z,85.71
2018-09-12T03:59:44.824Z,85.12
2018-09-12T04:02:12.034Z,86.60
2018-09-12T04:04:39.217Z,87.03
2018-09-12T04:07:06.437Z,87.25
2018-09-12T04:09:33.541Z,86.53
2018-09-12T04:12:00.888Z,86.01
2018-09-12T04:14:28.029Z,87.23
2018-09-12T04:16:55.247Z,88.41
2018-09-12T04:19:22.424Z,86.83
2018-09-12T04:21:49.570Z,86.79
2018-09-12T04:24:16.985Z,86.60
2018-09-12T04:26:44.228Z,86.23
2018-09-12T04:29:11.416Z,86.10
2018-09-12T04:31:38.652Z,85.62
2018-09-12T04:34:05.768Z,86.18
2018-09-12T04:36:32.997Z,88.34
2018-09-12T04:39:00.248Z,87.68
2018-09-12T04:41:27.405Z,86.33
2018-09-12T04:43:54.952Z,84.66
2018-09-12T04:46:22.194Z,84.44
2018-09-12T04:48:49.324Z,84.75
2018-09-12T04:51:17.433Z,84.53
2018-09-12T04:53:44.674Z,85.22
2018-09-12T04:56:11.873Z,85.64
2018-09-12T04:58:38.977Z,85.04
2018-09-12T05:01:06.243Z,86.05
2018-09-12T05:03:33.357Z,86.00
2018-09-12T05:06:00.478Z,84.96
2018-09-12T05:08:27.661Z,85.51
2018-09-12T05:10:54.841Z,84.86
2018-09-12T05:13:21.988Z,85.33
2018-09-12T05:15:49.116Z,84.93
2018-09-12T05:18:16.380Z,85.32
2018-09-12T05:20:43.704Z,84.98
2018-09-12T05:23:10.872Z,85.06
2018-09-12T05:25:38.084Z,85.71
2018-09-12T05:28:05.300Z,85.40
2018-09-12T05:30:32.502Z,86.45
2018-09-12T05:32:59.801Z,86.39
2018-09-12T05:35:27.011Z,85.64
2018-09-12T05:37:54.161Z,85.83
2018-09-12T05:40:21.305Z,86.37
2018-09-12T05:42:48.682Z,87.55
2018-09-12T05:45:15.876Z,87.03
2018-09-12T05:47:43.237Z,86.11
2018-09-12T05:50:10.404Z,85.32
2018-09-12T05:52:37.557Z,85.34
2018-09-12T05:55:05.244Z,85.15
2018-09-12T05:57:32.438Z,85.22
2018-09-12T05:59:59.691Z,84.81
2018-09-12T06:02:26.949Z,85.09
2018-09-12T06:04:54.082Z,84.66
2018-09-12T06:07:21.325Z,84.71
2018-09-12T06:09:48.425Z,85.01
2018-09-12T06:12:15.617Z,84.26
2018-09-12T06:14:42.784Z,84.49
2018-09-12T06:17:09.887Z,84.37
2018-09-12T06:19:37.001Z,83.94
2018-09-12T06:22:04.193Z,82.70
2018-09-12T06:24:31.332Z,82.06
2018-09-12T06:26:58.640Z,82.39
2018-09-12T06:29:25.856Z,82.03
2018-09-12T06:31:53.070Z,81.63
2018-09-12T06:34:20.249Z,81.47
2018-09-12T06:36:47.359Z,81.54
2018-09-12T06:39:14.611Z,81.17
2018-09-12T06:41:41.724Z,79.62
2018-09-12T06:44:08.904Z,78.04
2018-09-12T06:46:36.333Z,77.19
2018-09-12T06:49:03.633Z,76.02
2018-09-12T06:51:30.847Z,75.25
2018-09-12T06:53:58.098Z,71.65
2018-09-12T06:56:25.471Z,71.15
2018-09-12T06:58:52.733Z,69.41
2018-09-12T07:01:19.936Z,68.59
2018-09-12T07:03:47.028Z,68.06
2018-09-12T07:06:14.180Z,67.04
2018-09-12T07:08:41.427Z,67.87
2018-09-12T07:11:08.581Z,66.70
2018-09-12T07:13:35.757Z,66.78
2018-09-12T07:16:03.022Z,66.08
2018-09-12T07:18:30.117Z,66.51
2018-09-12T07:20:57.295Z,65.77
2018-09-12T07:23:24.517Z,63.91
2018-09-12T07:25:51.662Z,64.14
2018-09-12T07:28:18.924Z,64.07
2018-09-12T07:30:46.093Z,66.17
2018-09-12T07:33:13.220Z,63.37
2018-09-12T07:35:41.005Z,63.31
2018-09-12T07:38:08.168Z,63.21
2018-09-12T07:40:35.272Z,63.24
2018-09-12T07:43:02.477Z,63.18
2018-09-12T07:45:29.621Z,61.96
2018-09-12T07:47:56.829Z,62.10
2018-09-12T07:50:24.105Z,62.04
2018-09-12T07:52:51.281Z,62.41
2018-09-12T07:55:18.581Z,61.68
2018-09-12T07:57:45.727Z,60.25
2018-09-12T08:00:13.013Z,60.54
2018-09-12T08:02:40.267Z,59.77
2018-09-12T08:05:07.981Z,59.21
2018-09-12T08:07:35.065Z,59.77
2018-09-12T08:10:02.524Z,58.45
2018-09-12T08:12:29.624Z,60.04
2018-09-12T08:14:56.768Z,59.06
2018-09-12T08:17:24.264Z,59.24
2018-09-12T08:19:51.442Z,56.88
2018-09-12T08:22:18.604Z,56.90
2018-09-12T08:24:45.838Z,57.18
2018-09-12T08:27:12.998Z,56.46
2018-09-12T08:29:40.242Z,57.94
2018-09-12T08:32:07.482Z,57.06
2018-09-12T08:34:34.685Z,56.17
2018-09-12T08:37:01.973Z,56.38
2018-09-12T08:39:29.121Z,56.88
2018-09-12T08:41:56.295Z,56.37
2018-09-12T08:44:23.467Z,54.88
2018-09-12T08:46:50.616Z,55.09
2018-09-12T08:49:17.735Z,56.19
2018-09-12T08:51:44.933Z,55.06
2018-09-12T08:54:12.062Z,54.39
2018-09-12T08:56:39.345Z,54.80
2018-09-12T08:59:06.611Z,55.58
2018-09-12T09:01:33.847Z,54.33
2018-09-12T09:04:01.154Z,53.12
2018-09-12T09:06:28.249Z,50.51
2018-09-12T09:08:55.440Z,50.78
2018-09-12T09:11:22.745Z,49.74
2018-09-12T09:13:49.975Z,50.16
2018-09-12T09:16:17.191Z,49.88
2018-09-12T09:18:44.386Z,48.27
2018-09-12T09:21:11.605Z,49.07
2018-09-12T09:23:38.970Z,49.43
2018-09-12T09:26:06.223Z,48.91
2018-09-12T09:28:33.417Z,47.11
2018-09-12T09:31:00.696Z,48.72
2018-09-12T09:33:27.872Z,47.32
2018-09-12T09:35:54.996Z,45.53
2018-09-12T09:38:22.332Z,45.84
2018-09-12T09:40:49.568Z,46.93
2018-09-12T09:43:16.708Z,45.48
2018-09-12T09:45:44.036Z,45.67
2018-09-12T09:48:11.297Z,46.61
2018-09-12T09:50:38.388Z,46.03
2018-09-12T09:53:05.652Z,46.79
2018-09-12T09:55:32.817Z,46.48
2018-09-12T09:58:00.001Z,45.95
2018-09-12T10:00:32.937Z,44.04
2018-09-12T10:04:09.652Z,44.41
2018-09-12T10:06:42.326Z,44.93
2018-09-12T10:09:15.294Z,43.18
2018-09-12T10:11:42.582Z,43.18
2018-09-12T10:14:09.809Z,43.05
2018-09-12T10:16:36.986Z,43.59
2018-09-12T10:19:04.280Z,42.39
2018-09-12T10:21:31.423Z,42.26
2018-09-12T10:23:58.628Z,42.43
2018-09-12T10:26:25.876Z,43.11
2018-09-12T10:28:53.000Z,42.91
2018-09-12T10:31:20.498Z,43.24
2018-09-12T10:33:47.716Z,41.36
2018-09-12T10:36:14.850Z,40.89
2018-09-12T10:38:42.141Z,41.77
2018-09-12T10:41:09.409Z,41.91
2018-09-12T10:43:36.672Z,41.83
2018-09-12T10:46:04.074Z,41.57
2018-09-12T10:48:31.240Z,40.62
2018-09-12T10:50:58.474Z,40.66
2018-09-12T10:53:25.639Z,40.75
2018-09-12T10:55:52.812Z,41.40
2018-09-12T10:58:20.243Z,41.60
2018-09-12T11:00:47.529Z,40.09
2018-09-12T11:03:14.728Z,40.64
2018-09-12T11:05:42.016Z,40.41
2018-09-12T11:08:09.174Z,38.15
2018-09-12T11:10:36.369Z,36.05
2018-09-12T11:13:03.751Z,36.11
2018-09-12T11:15:31.072Z,35.22
2018-09-12T11:17:58.348Z,35.40
2018-09-12T11:20:25.546Z,35.07
2018-09-12T11:22:52.996Z,34.75
2018-09-12T11:25:20.202Z,35.35
2018-09-12T11:27:47.461Z,35.17
2018-09-12T11:30:14.661Z,34.54
2018-09-12T11:32:41.878Z,33.67
2018-09-12T11:35:09.024Z,33.88
2018-09-12T11:37:36.179Z,34.19
2018-09-12T11:40:04.711Z,33.25
2018-09-12T11:42:31.925Z,34.21
2018-09-12T11:44:59.099Z,33.81
2018-09-12T11:47:26.290Z,33.85
2018-09-12T11:49:57.443Z,32.95
2018-09-12T11:52:24.826Z,32.06
2018-09-12T11:54:52.034Z,31.77
2018-09-12T11:57:19.324Z,32.01
2018-09-12T11:59:46.527Z,32.37
2018-09-12T12:02:13.808Z,31.98
2018-09-12T12:04:40.958Z,31.56
2018-09-12T12:07:08.109Z,31.52
2018-09-12T12:09:35.324Z,31.12
2018-09-12T12:12:02.533Z,31.11
2018-09-12T12:14:29.751Z,31.86
2018-09-12T12:16:56.912Z,31.84
2018-09-12T12:19:24.882Z,31.42
2018-09-12T12:21:52.329Z,31.20
2018-09-12T12:24:19.534Z,31.04
2018-09-12T12:26:46.972Z,30.66
2018-09-12T12:29:14.213Z,31.63
2018-09-12T12:31:41.384Z,30.07
2018-09-12T12:34:08.807Z,29.72
2018-09-12T12:36:35.975Z,31.62
2018-09-12T12:39:05.164Z,33.02
2018-09-12T12:41:32.573Z,32.10
2018-09-12T12:44:00.189Z,32.94
2018-09-12T12:46:27.300Z,31.89
2018-09-12T12:48:54.557Z,30.55
2018-09-12T12:51:21.725Z,30.51
2018-09-12T12:53:48.870Z,30.25
2018-09-12T12:56:16.143Z,29.54
2018-09-12T12:58:43.310Z,29.56
2018-09-12T13:01:10.469Z,30.66
2018-09-12T13:03:38.405Z,29.94
2018-09-12T13:06:05.765Z,29.97
2018-09-12T13:08:32.933Z,30.58
2018-09-12T13:11:00.257Z,29.70
2018-09-12T13:13:27.417Z,29.81
2018-09-12T13:15:54.604Z,29.49
2018-09-12T13:18:21.767Z,30.31
2018-09-12T13:20:49.014Z,29.39
2018-09-12T13:23:16.305Z,28.19
2018-09-12T13:25:43.632Z,28.52
2018-09-12T13:28:10.790Z,29.14
2018-09-12T13:30:38.099Z,29.07
2018-09-12T13:33:05.589Z,28.94
2018-09-12T13:35:32.786Z,28.74
2018-09-12T13:38:00.017Z,27.85
2018-09-12T13:40:27.216Z,27.59
2018-09-12T13:42:54.342Z,27.06
2018-09-12T13:45:21.609Z,27.71
2018-09-12T13:47:48.803Z,28.23
2018-09-12T13:50:16.636Z,28.32
2018-09-12T13:52:44.597Z,27.98
2018-09-12T13:55:11.831Z,28.55
2018-09-12T13:57:39.041Z,28.59
2018-09-12T14:00:06.684Z,27.57
2018-09-12T14:02:33.833Z,27.24
2018-09-12T14:05:01.089Z,27.18
2018-09-12T14:07:28.337Z,28.27
2018-09-12T14:09:55.551Z,27.58
2018-09-12T14:12:22.687Z,28.12
2018-09-12T14:14:49.950Z,28.29
2018-09-12T14:17:17.165Z,27.93
2018-09-12T14:19:44.589Z,28.30
2018-09-12T14:22:11.756Z,28.66
2018-09-12T14:24:38.968Z,27.08
2018-09-12T14:27:06.174Z,27.42
2018-09-12T14:29:33.381Z,27.75
2018-09-12T14:32:00.556Z,26.45
2018-09-12T14:34:27.903Z,27.63
2018-09-12T14:36:55.044Z,28.09
2018-09-12T14:39:22.259Z,27.82
2018-09-12T14:41:49.532Z,26.92
2018-09-12T14:44:16.653Z,27.04
2018-09-12T14:46:43.993Z,27.18
2018-09-12T14:49:11.228Z,27.22
2018-09-12T14:51:38.381Z,27.45
2018-09-12T14:54:05.673Z,26.43
2018-09-12T14:56:32.854Z,27.25
2018-09-12T14:59:00.078Z,25.93
2018-09-12T15:01:27.527Z,26.97
2018-09-12T15:03:54.671Z,26.06
2018-09-12T15:06:21.853Z,25.96
2018-09-12T15:08:49.074Z,25.91
2018-09-12T15:11:16.217Z,25.20
2018-09-12T15:13:43.690Z,25.93
2018-09-12T15:16:10.999Z,26.35
2018-09-12T15:18:38.179Z,25.75
2018-09-12T15:21:05.417Z,25.48
2018-09-12T15:23:32.669Z,25.95
2018-09-12T15:25:59.931Z,26.40
2018-09-12T15:28:27.348Z,26.22
2018-09-12T15:30:54.578Z,26.10
2018-09-12T15:33:21.762Z,26.65
2018-09-12T15:35:49.517Z,25.58
2018-09-12T15:38:16.697Z,25.58
2018-09-12T15:40:43.919Z,25.08
2018-09-12T15:43:11.263Z,25.91
2018-09-12T15:45:38.525Z,25.63
2018-09-12T15:48:05.812Z,26.56
2018-09-12T15:50:33.038Z,28.61
2018-09-12T15:53:00.170Z,26.14
2018-09-12T15:55:27.430Z,27.69
2018-09-12T15:57:54.771Z,29.19
2018-09-12T16:00:21.911Z,31.19
2018-09-12T16:02:49.184Z,31.61
2018-09-12T16:05:16.375Z,30.08
2018-09-12T16:07:43.864Z,32.26
2018-09-12T16:10:11.218Z,30.12
2018-09-12T16:12:38.442Z,31.27
2018-09-12T16:15:05.636Z,29.92
2018-09-12T16:17:32.889Z,29.43
2018-09-12T16:20:00.092Z,29.71
2018-09-12T16:22:27.248Z,29.84
2018-09-12T16:24:54.488Z,29.37
2018-09-12T16:27:22.361Z,29.95
2018-09-12T16:29:49.543Z,29.84
2018-09-12T16:32:17.468Z,30.93
2018-09-12T16:34:44.683Z,31.09
2018-09-12T16:37:11.861Z,30.95
2018-09-12T16:39:39.177Z,31.33
2018-09-12T16:42:06.326Z,32.15
2018-09-12T16:44:33.483Z,31.24
2018-09-12T16:47:00.832Z,34.03
2018-09-12T16:49:28.012Z,32.26
2018-09-12T16:51:55.343Z,33.32
2018-09-12T16:54:22.793Z,35.66
2018-09-12T16:56:50.035Z,35.16
2018-09-12T16:59:17.173Z,34.72
2018-09-12T17:01:44.628Z,38.74
2018-09-12T17:04:11.803Z,39.87
2018-09-12T17:06:39.076Z,42.88
2018-09-12T17:09:07.909Z,41.76
2018-09-12T17:11:35.184Z,43.20
2018-09-12T17:14:02.397Z,43.71
2018-09-12T17:16:29.680Z,44.34
2018-09-12T17:18:56.890Z,45.33
2018-09-12T17:21:24.212Z,45.45
2018-09-12T17:23:51.612Z,45.06
2018-09-12T17:26:18.797Z,45.21
2018-09-12T17:28:46.801Z,45.66
2018-09-12T17:31:14.112Z,45.72
2018-09-12T17:33:41.345Z,45.51
2018-09-12T17:36:08.844Z,45.84
2018-09-12T17:38:36.176Z,45.65
2018-09-12T17:41:03.428Z,46.80
2018-09-12T17:43:30.565Z,46.80
2018-09-12T17:45:57.863Z,47.85
2018-09-12T17:48:25.132Z,48.29
2018-09-12T17:50:52.334Z,48.72
2018-09-12T17:53:19.607Z,49.28
2018-09-12T17:55:46.884Z,50.19
2018-09-12T17:58:14.259Z,49.89
2018-09-12T18:00:41.448Z,51.58
2018-09-12T18:03:08.744Z,51.19
2018-09-12T18:05:36.086Z,52.82
2018-09-12T18:08:03.406Z,51.83
2018-09-12T18:10:30.577Z,52.05
2018-09-12T18:12:58.101Z,53.42
2018-09-12T18:15:25.324Z,52.27
2018-09-12T18:17:52.928Z,52.04
2018-09-12T18:20:21.220Z,52.67
2018-09-12T18:22:48.520Z,54.67
2018-09-12T18:25:15.728Z,56.10
2018-09-12T18:27:43.069Z,59.24
2018-09-12T18:30:11.120Z,59.24
2018-09-12T18:32:38.371Z,59.17
2018-09-12T18:35:05.733Z,58.67
2018-09-12T18:37:33.108Z,60.19
2018-09-12T18:40:00.277Z,59.93
2018-09-12T18:42:27.569Z,59.10
2018-09-12T18:44:54.697Z,59.33
2018-09-12T18:47:21.891Z,59.16
2018-09-12T18:49:49.095Z,58.87
2018-09-12T18:52:16.313Z,59.56
2018-09-12T18:54:43.480Z,59.79
2018-09-12T18:57:10.755Z,61.09
2018-09-12T18:59:37.903Z,61.70
2018-09-12T19:02:05.141Z,61.53
2018-09-12T19:04:32.413Z,64.26
2018-09-12T19:06:59.768Z,64.73
2018-09-12T19:09:26.980Z,65.86
2018-09-12T19:11:54.169Z,67.11
2018-09-12T19:14:21.310Z,65.88
2018-09-12T19:16:48.534Z,64.25
2018-09-12T19:19:15.737Z,65.35
2018-09-12T19:21:42.908Z,65.45
2018-09-12T19:24:10.868Z,64.45
2018-09-12T19:26:38.099Z,64.87
2018-09-12T19:29:05.485Z,64.84
2018-09-12T19:31:32.884Z,64.59
2018-09-12T19:34:00.168Z,64.29
2018-09-12T19:36:27.237Z,64.44
2018-09-12T19:38:54.502Z,63.03
2018-09-12T19:41:21.652Z,63.12
2018-09-12T19:43:49.083Z,63.66
2018-09-12T19:46:16.406Z,63.71
2018-09-12T19:48:43.522Z,63.08
2018-09-12T19:51:16.047Z,64.08
2018-09-12T19:53:43.724Z,65.91
2018-09-12T19:56:12.343Z,66.30
2018-09-12T19:58:39.965Z,66.01
2018-09-12T20:01:07.318Z,65.58
2018-09-12T20:03:34.809Z,65.70
2018-09-12T20:06:02.296Z,66.14
2018-09-12T20:08:29.526Z,68.28
2018-09-12T20:10:56.697Z,69.35
2018-09-12T20:13:23.807Z,71.94
2018-09-12T20:15:51.082Z,72.62
2018-09-12T20:18:18.647Z,74.08
2018-09-12T20:20:45.908Z,72.47
2018-09-12T20:23:13.124Z,71.03
2018-09-12T20:25:40.401Z,70.22
2018-09-12T20:28:07.579Z,69.47
2018-09-12T20:30:34.705Z,70.23
2018-09-12T20:33:01.877Z,70.30
2018-09-12T20:35:29.081Z,69.35
2018-09-12T20:37:57.274Z,69.09
2018-09-12T20:40:24.617Z,70.19
2018-09-12T20:42:51.892Z,70.48
2018-09-12T20:45:19.109Z,71.63
2018-09-12T20:47:46.302Z,73.50
2018-09-12T20:50:13.568Z,76.92
2018-09-12T20:52:41.540Z,74.98
2018-09-12T20:55:08.754Z,73.55
2018-09-12T20:57:36.146Z,73.31
2018-09-12T21:00:04.097Z,71.36
2018-09-12T21:02:31.454Z,71.36
2018-09-12T21:04:58.903Z,70.89
2018-09-12T21:07:26.149Z,70.89
2018-09-12T21:09:53.289Z,71.78
2018-09-12T21:12:20.488Z,72.11
2018-09-12T21:14:47.820Z,72.34
2018-09-12T21:17:15.074Z,73.86
2018-09-12T21:19:42.885Z,74.07
2018-09-12T21:22:10.078Z,73.31
2018-09-12T21:24:37.278Z,73.50
2018-09-12T21:27:04.404Z,74.27
2018-09-12T21:29:31.721Z,73.71
2018-09-12T21:31:58.983Z,73.45
2018-09-12T21:34:26.188Z,76.31
2018-09-12T21:36:53.424Z,78.92
2018-09-12T21:39:20.623Z,77.13
2018-09-12T21:41:47.756Z,76.67
2018-09-12T21:44:15.123Z,75.50
2018-09-12T21:46:42.336Z,75.73
2018-09-12T21:49:09.455Z,75.00
2018-09-12T21:51:36.730Z,74.01
2018-09-12T21:54:03.913Z,73.77
2018-09-12T21:56:31.108Z,74.49
2018-09-12T21:58:58.316Z,73.97
2018-09-12T22:01:25.570Z,76.67
2018-09-12T22:03:53.276Z,79.54
2018-09-12T22:06:21.054Z,79.58
2018-09-12T22:08:48.289Z,77.28
2018-09-12T22:11:15.491Z,76.20
2018-09-12T22:13:42.728Z,75.10
2018-09-12T22:16:09.872Z,75.21
2018-09-12T22:18:37.060Z,75.23
2018-09-12T22:21:04.179Z,79.62
2018-09-12T22:23:31.328Z,80.83
2018-09-12T22:25:59.812Z,83.19
2018-09-12T22:28:27.089Z,80.89
2018-09-12T22:30:54.256Z,80.19
2018-09-12T22:33:21.532Z,80.16
2018-09-12T22:35:48.693Z,79.28
2018-09-12T22:38:15.866Z,78.74
2018-09-12T22:40:43.093Z,78.22
2018-09-12T22:43:10.302Z,79.74
2018-09-12T22:45:37.444Z,82.55
2018-09-12T22:48:04.833Z,82.91
2018-09-12T22:50:32.119Z,80.89
2018-09-12T22:52:59.292Z,79.47
2018-09-12T22:55:26.428Z,78.14
2018-09-12T22:57:53.526Z,77.71
2018-09-12T23:00:20.740Z,78.23
2018-09-12T23:02:48.009Z,78.56
2018-09-12T23:05:15.120Z,78.34
2018-09-12T23:07:42.508Z,77.51
2018-09-12T23:10:09.740Z,77.62
2018-09-12T23:12:36.877Z,78.44
2018-09-12T23:15:04.817Z,77.08
2018-09-12T23:17:31.953Z,77.59
2018-09-12T23:19:59.148Z,78.53
2018-09-12T23:22:26.975Z,79.85
2018-09-12T23:24:54.261Z,81.71
2018-09-12T23:27:21.436Z,80.45
2018-09-12T23:29:48.691Z,80.25
2018-09-12T23:32:15.809Z,79.58
2018-09-12T23:34:43.016Z,79.96
2018-09-12T23:37:10.324Z,78.49
2018-09-12T23:39:37.465Z,79.01
2018-09-12T23:42:04.677Z,79.16
2018-09-12T23:44:31.909Z,79.52
2018-09-12T23:46:59.042Z,78.63
2018-09-12T23:49:26.349Z,80.66
2018-09-12T23:51:53.628Z,80.93
2018-09-12T23:54:20.805Z,83.53
2018-09-12T23:56:47.981Z,81.52
2018-09-12T23:59:15.128Z,80.86
